createdAt,value
2023-03-05T00:01:33.494Z,100227.53
2023-03-05T00:03:35.024Z,100222.34
2023-03-05T00:05:36.429Z,100229.34
2023-03-05T00:07:37.905Z,100221.00
2023-03-05T00:09:39.394Z,100217.41
2023-03-05T00:11:40.841Z,100219.19
2023-03-05T00:13:42.437Z,100216.59
2023-03-05T00:15:43.915Z,100217.59
2023-03-05T00:17:45.380Z,100209.41
2023-03-05T00:19:46.820Z,100208.09
2023-03-05T00:21:48.250Z,100211.53
2023-03-05T00:23:50.753Z,100209.06
2023-03-05T00:25:52.339Z,100202.38
2023-03-05T00:27:53.699Z,100207.63
2023-03-05T00:29:55.320Z,100202.53
2023-03-05T00:31:57.091Z,100196.34
2023-03-05T00:34:04.494Z,100193.88
2023-03-05T00:36:06.733Z,100196.50
2023-03-05T00:38:08.445Z,100199.78
2023-03-05T00:40:10.572Z,100199.78
2023-03-05T00:42:12.018Z,100196.97
2023-03-05T00:44:13.669Z,100196.19
2023-03-05T00:46:15.431Z,100190.28
2023-03-05T00:48:16.954Z,100193.25
2023-03-05T00:50:18.398Z,100198.63
2023-03-05T00:52:19.757Z,100187.81
2023-03-05T00:54:21.874Z,100187.00
2023-03-05T00:56:23.353Z,100191.59
2023-03-05T00:58:24.729Z,100182.78
2023-03-05T01:00:26.148Z,100185.56
2023-03-05T01:02:27.616Z,100180.16
2023-03-05T01:04:29.088Z,100179.00
2023-03-05T01:06:30.518Z,100175.75
2023-03-05T01:08:31.950Z,100168.22
2023-03-05T01:10:33.365Z,100167.72
2023-03-05T01:12:34.787Z,100165.31
2023-03-05T01:14:36.713Z,100166.09
2023-03-05T01:16:38.150Z,100164.97
2023-03-05T01:18:40.355Z,100171.31
2023-03-05T01:20:41.939Z,100176.06
2023-03-05T01:22:43.601Z,100172.00
2023-03-05T01:24:44.987Z,100167.44
2023-03-05T01:26:46.420Z,100167.28
2023-03-05T01:28:49.311Z,100163.66
2023-03-05T01:30:50.757Z,100152.56
2023-03-05T01:32:52.273Z,100154.03
2023-03-05T01:34:53.652Z,100149.00
2023-03-05T01:36:55.140Z,100155.66
2023-03-05T01:38:56.604Z,100148.03
2023-03-05T01:40:58.001Z,100144.25
2023-03-05T01:43:06.739Z,100143.56
2023-03-05T01:45:14.051Z,100137.56
2023-03-05T01:47:15.476Z,100137.56
2023-03-05T01:49:22.990Z,100136.41
2023-03-05T01:51:26.875Z,100135.91
2023-03-05T01:53:28.340Z,100131.03
2023-03-05T01:55:32.841Z,100135.44
2023-03-05T01:57:45.553Z,100130.38
2023-03-05T01:59:51.199Z,100126.94
2023-03-05T02:01:55.984Z,100130.03
2023-03-05T02:03:58.175Z,100132.34
2023-03-05T02:05:59.760Z,100130.53
2023-03-05T02:08:04.282Z,100130.38
2023-03-05T02:10:16.371Z,100123.81
2023-03-05T02:12:18.268Z,100119.56
2023-03-05T02:14:20.582Z,100120.41
2023-03-05T02:16:22.088Z,100123.81
2023-03-05T02:18:23.872Z,100114.19
2023-03-05T02:20:29.216Z,100116.97
2023-03-05T02:22:30.743Z,100108.81
2023-03-05T02:24:35.975Z,100111.09
2023-03-05T02:26:37.414Z,100112.75
2023-03-05T02:28:44.491Z,100106.34
2023-03-05T02:30:46.398Z,100095.75
2023-03-05T02:32:48.166Z,100092.66
2023-03-05T02:34:49.674Z,100096.41
2023-03-05T02:36:51.052Z,100089.22
2023-03-05T02:38:53.592Z,100086.94
2023-03-05T02:40:54.978Z,100076.00
2023-03-05T02:42:56.400Z,100075.84
2023-03-05T02:45:00.889Z,100078.78
2023-03-05T02:47:02.367Z,100071.75
2023-03-05T02:49:03.917Z,100077.47
2023-03-05T02:51:06.940Z,100071.75
2023-03-05T02:53:08.425Z,100075.69
2023-03-05T02:55:10.389Z,100071.13
2023-03-05T02:57:11.809Z,100071.75
2023-03-05T02:59:13.290Z,100064.94
2023-03-05T03:01:14.818Z,100069.63
2023-03-05T03:03:16.397Z,100066.72
2023-03-05T03:05:18.253Z,100062.13
2023-03-05T03:07:19.860Z,100062.97
2023-03-05T03:09:21.305Z,100056.09
2023-03-05T03:11:22.794Z,100055.44
2023-03-05T03:13:25.280Z,100057.09
2023-03-05T03:15:26.649Z,100050.22
2023-03-05T03:17:28.041Z,100050.38
2023-03-05T03:19:29.410Z,100054.31
2023-03-05T03:21:31.298Z,100051.34
2023-03-05T03:23:33.425Z,100045.97
2023-03-05T03:25:35.042Z,100045.34
2023-03-05T03:27:36.666Z,100040.75
2023-03-05T03:29:38.266Z,100036.84
2023-03-05T03:31:41.271Z,100033.41
2023-03-05T03:33:42.800Z,100025.56
2023-03-05T03:35:46.338Z,100021.84
2023-03-05T03:37:47.861Z,100027.38
2023-03-05T03:39:49.315Z,100021.34
2023-03-05T03:41:52.750Z,100024.94
2023-03-05T03:43:54.333Z,100015.13
2023-03-05T03:45:55.777Z,100020.34
2023-03-05T03:47:57.200Z,100014.31
2023-03-05T03:49:58.965Z,100009.41
2023-03-05T03:52:00.560Z,100008.59
2023-03-05T03:54:02.128Z,100004.03
2023-03-05T03:56:03.816Z,100002.75
2023-03-05T03:58:05.295Z,99999.16
2023-03-05T04:00:07.346Z,99999.97
2023-03-05T04:02:08.748Z,99992.13
2023-03-05T04:04:12.637Z,99991.47
2023-03-05T04:06:14.437Z,99990.31
2023-03-05T04:08:15.877Z,99988.38
2023-03-05T04:10:17.805Z,99991.81
2023-03-05T04:12:19.390Z,99985.44
2023-03-05T04:14:21.153Z,99987.91
2023-03-05T04:16:23.365Z,99986.09
2023-03-05T04:18:24.917Z,99978.09
2023-03-05T04:20:26.364Z,99977.75
2023-03-05T04:22:27.945Z,99978.56
2023-03-05T04:24:29.377Z,99970.25
2023-03-05T04:26:30.815Z,99970.09
2023-03-05T04:28:33.120Z,99970.78
2023-03-05T04:30:34.552Z,99970.44
2023-03-05T04:32:35.983Z,99966.34
2023-03-05T04:34:38.095Z,99966.66
2023-03-05T04:36:39.613Z,99969.63
2023-03-05T04:38:41.136Z,99960.13
2023-03-05T04:40:42.798Z,99958.00
2023-03-05T04:42:44.377Z,99956.22
2023-03-05T04:44:47.435Z,99951.50
2023-03-05T04:46:49.769Z,99955.75
2023-03-05T04:48:51.204Z,99950.03
2023-03-05T04:50:52.675Z,99956.22
2023-03-05T04:52:54.223Z,99954.63
2023-03-05T04:54:55.651Z,99951.81
2023-03-05T04:56:57.071Z,99950.66
2023-03-05T04:58:58.898Z,99956.91
2023-03-05T05:01:02.147Z,99956.72
2023-03-05T05:03:03.741Z,99951.34
2023-03-05T05:05:05.565Z,99949.88
2023-03-05T05:07:07.644Z,99947.28
2023-03-05T05:09:09.078Z,99949.06
2023-03-05T05:11:14.096Z,99942.84
2023-03-05T05:13:15.485Z,99949.53
2023-03-05T05:15:17.031Z,99944.66
2023-03-05T05:17:18.423Z,99940.75
2023-03-05T05:19:19.815Z,99944.31
2023-03-05T05:21:21.325Z,99936.81
2023-03-05T05:23:22.849Z,99934.38
2023-03-05T05:25:24.365Z,99928.66
2023-03-05T05:27:25.819Z,99939.09
2023-03-05T05:29:27.261Z,99936.50
2023-03-05T05:31:28.792Z,99941.09
2023-03-05T05:33:30.137Z,99940.56
2023-03-05T05:35:31.634Z,99934.38
2023-03-05T05:37:35.838Z,99933.75
2023-03-05T05:39:37.653Z,99934.72
2023-03-05T05:41:39.039Z,99934.38
2023-03-05T05:43:41.272Z,99930.63
2023-03-05T05:45:42.925Z,99933.41
2023-03-05T05:47:44.345Z,99931.94
2023-03-05T05:49:46.009Z,99924.28
2023-03-05T05:51:47.435Z,99919.06
2023-03-05T05:53:49.574Z,99926.41
2023-03-05T05:55:51.532Z,99921.34
2023-03-05T05:57:52.916Z,99920.53
2023-03-05T05:59:54.276Z,99918.91
2023-03-05T06:01:55.727Z,99918.56
2023-03-05T06:03:57.798Z,99915.31
2023-03-05T06:05:59.199Z,99920.06
2023-03-05T06:08:00.862Z,99913.03
2023-03-05T06:10:03.173Z,99909.28
2023-03-05T06:12:05.224Z,99903.88
2023-03-05T06:14:08.575Z,99910.25
2023-03-05T06:16:14.470Z,99914.16
2023-03-05T06:18:15.881Z,99910.59
2023-03-05T06:20:17.393Z,99910.59
2023-03-05T06:22:18.738Z,99910.75
2023-03-05T06:24:20.361Z,99921.81
2023-03-05T06:26:22.831Z,99917.28
2023-03-05T06:28:24.265Z,99910.59
2023-03-05T06:30:25.632Z,99913.84
2023-03-05T06:32:27.203Z,99915.31
2023-03-05T06:34:28.643Z,99925.44
2023-03-05T06:36:30.642Z,99919.69
2023-03-05T06:38:32.646Z,99913.81
2023-03-05T06:40:34.691Z,99913.19
2023-03-05T06:42:36.105Z,99912.19
2023-03-05T06:44:41.128Z,99907.78
2023-03-05T06:46:42.477Z,99911.03
2023-03-05T06:48:44.264Z,99914.97
2023-03-05T06:50:45.745Z,99912.31
2023-03-05T06:52:50.037Z,99911.34
2023-03-05T06:54:51.474Z,99905.16
2023-03-05T06:56:52.900Z,99905.97
2023-03-05T06:58:54.537Z,99913.63
2023-03-05T07:00:55.940Z,99911.00
2023-03-05T07:02:57.303Z,99911.81
2023-03-05T07:04:58.687Z,99912.78
2023-03-05T07:07:00.445Z,99917.19
2023-03-05T07:09:02.546Z,99913.00
2023-03-05T07:11:04.776Z,99911.91
2023-03-05T07:13:06.783Z,99911.06
2023-03-05T07:15:08.848Z,99914.97
2023-03-05T07:17:10.214Z,99907.63
2023-03-05T07:19:11.684Z,99903.53
2023-03-05T07:21:19.288Z,99913.34
2023-03-05T07:23:20.687Z,99904.34
2023-03-05T07:25:24.333Z,99900.75
2023-03-05T07:27:25.758Z,99908.41
2023-03-05T07:29:28.538Z,99902.06
2023-03-05T07:31:33.405Z,99912.66
2023-03-05T07:33:37.039Z,99893.75
2023-03-05T07:35:41.602Z,99903.38
2023-03-05T07:37:43.027Z,99897.47
2023-03-05T07:39:46.401Z,99898.97
2023-03-05T07:41:50.824Z,99896.50
2023-03-05T07:43:53.952Z,99896.00
2023-03-05T07:45:55.350Z,99888.53
2023-03-05T07:47:56.959Z,99887.84
2023-03-05T07:49:58.371Z,99880.81
2023-03-05T07:51:59.765Z,99879.31
2023-03-05T07:54:01.430Z,99881.78
2023-03-05T07:56:03.043Z,99880.63
2023-03-05T07:58:04.439Z,99877.03
2023-03-05T08:00:07.388Z,99869.50
2023-03-05T08:02:13.382Z,99873.56
2023-03-05T08:04:14.976Z,99874.31
2023-03-05T08:06:16.624Z,99870.22
2023-03-05T08:08:18.657Z,99869.41
2023-03-05T08:10:20.303Z,99870.88
2023-03-05T08:12:23.093Z,99873.31
2023-03-05T08:14:24.527Z,99863.38
2023-03-05T08:16:26.297Z,99861.59
2023-03-05T08:18:27.698Z,99867.50
2023-03-05T08:20:29.093Z,99862.09
2023-03-05T08:22:30.465Z,99862.22
2023-03-05T08:24:31.994Z,99859.59
2023-03-05T08:26:35.944Z,99856.97
2023-03-05T08:28:38.039Z,99858.97
2023-03-05T08:30:40.987Z,99858.44
2023-03-05T08:32:42.932Z,99849.53
2023-03-05T08:34:44.451Z,99853.31
2023-03-05T08:36:46.285Z,99852.84
2023-03-05T08:38:48.545Z,99852.78
2023-03-05T08:40:49.929Z,99841.16
2023-03-05T08:42:52.063Z,99850.59
2023-03-05T08:44:53.680Z,99846.34
2023-03-05T08:46:55.248Z,99843.38
2023-03-05T08:48:56.667Z,99839.38
2023-03-05T08:51:04.311Z,99837.69
2023-03-05T08:53:05.714Z,99842.81
2023-03-05T08:55:07.614Z,99840.81
2023-03-05T08:57:09.010Z,99835.25
2023-03-05T08:59:12.666Z,99840.16
2023-03-05T09:01:15.182Z,99835.19
2023-03-05T09:03:16.705Z,99834.03
2023-03-05T09:05:19.119Z,99833.91
2023-03-05T09:07:20.555Z,99836.84
2023-03-05T09:09:22.904Z,99826.44
2023-03-05T09:11:24.355Z,99825.53
2023-03-05T09:13:25.776Z,99823.97
2023-03-05T09:15:27.184Z,99821.25
2023-03-05T09:17:28.572Z,99823.38
2023-03-05T09:19:30.172Z,99821.94
2023-03-05T09:21:31.675Z,99821.81
2023-03-05T09:23:33.094Z,99816.69
2023-03-05T09:25:34.644Z,99819.41
2023-03-05T09:27:36.578Z,99813.22
2023-03-05T09:29:37.969Z,99816.75
2023-03-05T09:31:39.792Z,99816.72
2023-03-05T09:33:41.531Z,99814.13
2023-03-05T09:35:43.036Z,99806.25
2023-03-05T09:37:44.532Z,99815.06
2023-03-05T09:39:46.067Z,99809.41
2023-03-05T09:42:23.331Z,99808.63
2023-03-05T09:44:52.579Z,99810.97
2023-03-05T09:47:15.428Z,99809.66
2023-03-05T09:50:03.974Z,99813.53
2023-03-05T09:52:31.601Z,99803.63
2023-03-05T09:54:39.673Z,99801.81
2023-03-05T09:56:44.647Z,99799.91
2023-03-05T09:58:50.213Z,99797.06
2023-03-05T10:01:22.037Z,99793.72
2023-03-05T10:03:40.710Z,99792.44
2023-03-05T10:06:02.760Z,99794.97
2023-03-05T10:08:05.944Z,99800.13
2023-03-05T10:10:27.493Z,99793.44
2023-03-05T10:12:43.091Z,99793.19
2023-03-05T10:14:44.626Z,99794.16
2023-03-05T10:17:03.045Z,99786.03
2023-03-05T10:19:24.314Z,99786.31
2023-03-05T10:21:35.978Z,99782.25
2023-03-05T10:24:00.616Z,99785.50
2023-03-05T10:26:17.187Z,99782.25
2023-03-05T10:28:23.621Z,99779.25
2023-03-05T10:30:34.152Z,99772.16
2023-03-05T10:32:55.017Z,99768.88
2023-03-05T10:35:17.715Z,99766.16
2023-03-05T10:37:41.875Z,99771.22
2023-03-05T10:40:06.103Z,99762.81
2023-03-05T10:42:28.687Z,99768.88
2023-03-05T10:44:46.296Z,99764.91
2023-03-05T10:46:49.083Z,99752.44
2023-03-05T10:48:59.048Z,99748.09
2023-03-05T10:51:22.789Z,99742.53
2023-03-05T10:53:32.410Z,99753.91
2023-03-05T10:55:33.842Z,99756.06
2023-03-05T10:57:35.241Z,99749.50
2023-03-05T10:59:36.604Z,99759.50
2023-03-05T11:01:38.271Z,99753.81
2023-03-05T11:03:50.609Z,99755.75
2023-03-05T11:06:00.136Z,99743.94
2023-03-05T11:08:17.583Z,99747.09
2023-03-05T11:10:21.300Z,99740.34
2023-03-05T11:12:26.853Z,99737.66
2023-03-05T11:14:31.319Z,99741.88
2023-03-05T11:16:35.161Z,99729.25
2023-03-05T11:18:37.619Z,99730.88
2023-03-05T11:20:39.915Z,99722.72
2023-03-05T11:22:41.392Z,99723.63
2023-03-05T11:24:46.621Z,99719.78
2023-03-05T11:26:53.674Z,99721.56
2023-03-05T11:28:58.968Z,99712.31
2023-03-05T11:31:08.460Z,99718.97
2023-03-05T11:33:16.003Z,99713.00
2023-03-05T11:35:35.889Z,99716.06
2023-03-05T11:37:37.246Z,99713.06
2023-03-05T11:39:40.178Z,99709.09
2023-03-05T11:41:41.679Z,99705.53
2023-03-05T11:43:43.883Z,99706.72
2023-03-05T11:45:47.315Z,99705.66
2023-03-05T11:47:51.295Z,99701.53
2023-03-05T11:50:02.088Z,99698.66
2023-03-05T11:52:26.561Z,99695.31
2023-03-05T11:54:39.028Z,99681.19
2023-03-05T11:56:43.520Z,99688.44
2023-03-05T11:59:01.681Z,99688.50
2023-03-05T12:01:07.041Z,99677.63
2023-03-05T12:03:14.135Z,99682.09
2023-03-05T12:05:15.842Z,99678.97
2023-03-05T12:07:28.261Z,99676.59
2023-03-05T12:09:50.785Z,99675.63
2023-03-05T12:12:02.272Z,99673.50
2023-03-05T12:14:06.816Z,99672.50
2023-03-05T12:16:41.465Z,99654.44
2023-03-05T12:19:01.050Z,99649.50
2023-03-05T12:21:15.157Z,99648.31
2023-03-05T12:23:19.699Z,99652.31
2023-03-05T12:25:26.891Z,99641.75
2023-03-05T12:27:35.075Z,99634.34
2023-03-05T12:29:50.959Z,99633.50
2023-03-05T12:31:52.479Z,99629.16
2023-03-05T12:33:54.124Z,99628.78
2023-03-05T12:36:21.171Z,99618.72
2023-03-05T12:38:33.173Z,99617.13
2023-03-05T12:40:35.039Z,99612.88
2023-03-05T12:42:46.330Z,99612.06
2023-03-05T12:45:14.564Z,99604.63
2023-03-05T12:47:19.199Z,99607.13
2023-03-05T12:49:21.098Z,99598.00
2023-03-05T12:51:32.975Z,99595.94
2023-03-05T12:53:34.903Z,99596.44
2023-03-05T12:55:40.845Z,99597.13
2023-03-05T12:57:45.663Z,99604.78
2023-03-05T12:59:58.440Z,99597.41
2023-03-05T13:02:03.706Z,99596.78
2023-03-05T13:04:11.666Z,99596.50
2023-03-05T13:06:34.195Z,99593.31
2023-03-05T13:08:37.203Z,99587.16
2023-03-05T13:10:39.746Z,99581.06
2023-03-05T13:12:52.887Z,99574.94
2023-03-05T13:15:15.367Z,99570.56
2023-03-05T13:17:27.900Z,99566.34
2023-03-05T13:19:32.773Z,99560.91
2023-03-05T13:21:35.353Z,99564.19
2023-03-05T13:23:37.367Z,99560.75
2023-03-05T13:25:38.806Z,99559.09
2023-03-05T13:27:41.431Z,99548.84
2023-03-05T13:29:52.342Z,99546.81
2023-03-05T13:32:02.470Z,99543.78
2023-03-05T13:34:20.961Z,99535.91
2023-03-05T13:36:24.128Z,99537.69
2023-03-05T13:38:38.873Z,99540.09
2023-03-05T13:40:41.516Z,99536.06
2023-03-05T13:42:42.933Z,99536.09
2023-03-05T13:44:54.655Z,99531.66
2023-03-05T13:47:08.095Z,99527.00
2023-03-05T13:49:21.607Z,99526.59
2023-03-05T13:51:23.234Z,99525.19
2023-03-05T13:53:28.295Z,99522.97
2023-03-05T13:55:29.730Z,99518.34
2023-03-05T13:57:50.914Z,99510.22
2023-03-05T13:59:53.096Z,99512.06
2023-03-05T14:01:56.399Z,99505.78
2023-03-05T14:04:25.403Z,99502.13
2023-03-05T14:06:28.736Z,99498.50
2023-03-05T14:08:30.870Z,99490.72
2023-03-05T14:10:38.273Z,99491.22
2023-03-05T14:12:43.645Z,99487.34
2023-03-05T14:14:45.433Z,99490.38
2023-03-05T14:16:46.921Z,99481.41
2023-03-05T14:19:00.288Z,99477.09
2023-03-05T14:21:11.006Z,99478.28
2023-03-05T14:23:45.898Z,99477.75
2023-03-05T14:25:47.378Z,99469.09
2023-03-05T14:27:48.899Z,99466.38
2023-03-05T14:29:50.510Z,99470.34
2023-03-05T14:32:02.969Z,99459.38
2023-03-05T14:34:07.183Z,99463.06
2023-03-05T14:36:10.213Z,99452.34
2023-03-05T14:38:22.281Z,99446.97
2023-03-05T14:40:30.859Z,99448.66
2023-03-05T14:42:34.277Z,99442.56
2023-03-05T14:44:36.345Z,99444.22
2023-03-05T14:46:37.941Z,99432.53
2023-03-05T14:48:39.409Z,99436.38
2023-03-05T14:50:56.860Z,99431.72
2023-03-05T14:53:06.796Z,99434.66
2023-03-05T14:55:15.321Z,99420.25
2023-03-05T14:57:20.979Z,99424.53
2023-03-05T14:59:22.429Z,99416.44
2023-03-05T15:01:25.252Z,99421.72
2023-03-05T15:03:27.901Z,99414.66
2023-03-05T15:05:29.411Z,99404.16
2023-03-05T15:07:32.021Z,99403.56
2023-03-05T15:09:33.590Z,99397.66
2023-03-05T15:11:35.171Z,99405.94
2023-03-05T15:13:36.734Z,99395.44
2023-03-05T15:15:39.641Z,99396.66
2023-03-05T15:17:43.726Z,99395.84
2023-03-05T15:19:47.002Z,99397.25
2023-03-05T15:21:48.444Z,99389.59
2023-03-05T15:23:49.893Z,99384.78
2023-03-05T15:25:51.341Z,99389.81
2023-03-05T15:27:52.964Z,99387.19
2023-03-05T15:29:54.337Z,99387.81
2023-03-05T15:31:56.682Z,99383.78
2023-03-05T15:33:58.046Z,99376.91
2023-03-05T15:35:59.723Z,99382.16
2023-03-05T15:38:01.326Z,99387.81
2023-03-05T15:40:02.792Z,99379.72
2023-03-05T15:42:06.347Z,99381.75
2023-03-05T15:44:07.917Z,99378.09
2023-03-05T15:46:09.414Z,99376.69
2023-03-05T15:48:11.091Z,99369.00
2023-03-05T15:50:12.482Z,99364.53
2023-03-05T15:52:15.631Z,99367.56
2023-03-05T15:54:17.252Z,99374.63
2023-03-05T15:56:19.579Z,99365.34
2023-03-05T15:58:21.700Z,99361.09
2023-03-05T16:00:29.213Z,99360.28
2023-03-05T16:02:30.606Z,99357.25
2023-03-05T16:04:32.060Z,99356.44
2023-03-05T16:06:34.361Z,99354.59
2023-03-05T16:08:36.842Z,99350.94
2023-03-05T16:10:39.531Z,99354.16
2023-03-05T16:12:42.857Z,99343.06
2023-03-05T16:14:45.728Z,99341.22
2023-03-05T16:16:47.488Z,99339.41
2023-03-05T16:18:49.355Z,99340.81
2023-03-05T16:20:51.645Z,99345.28
2023-03-05T16:22:53.100Z,99339.22
2023-03-05T16:24:54.544Z,99341.22
2023-03-05T16:26:55.933Z,99336.75
2023-03-05T16:28:57.361Z,99337.75
2023-03-05T16:30:58.802Z,99331.91
2023-03-05T16:33:00.563Z,99331.09
2023-03-05T16:35:01.938Z,99334.69
2023-03-05T16:37:06.795Z,99329.44
2023-03-05T16:39:08.190Z,99330.81
2023-03-05T16:41:09.657Z,99322.94
2023-03-05T16:43:11.058Z,99334.59
2023-03-05T16:45:12.959Z,99323.72
2023-03-05T16:47:14.540Z,99321.31
2023-03-05T16:49:16.523Z,99320.88
2023-03-05T16:51:19.934Z,99322.69
2023-03-05T16:53:21.995Z,99312.19
2023-03-05T16:55:23.397Z,99319.41
2023-03-05T16:57:25.475Z,99315.56
2023-03-05T16:59:27.426Z,99310.72
2023-03-05T17:01:30.292Z,99314.34
2023-03-05T17:03:31.670Z,99306.09
2023-03-05T17:05:36.129Z,99310.88
2023-03-05T17:07:37.529Z,99308.06
2023-03-05T17:09:39.034Z,99315.31
2023-03-05T17:11:40.388Z,99307.66
2023-03-05T17:13:42.370Z,99305.41
2023-03-05T17:17:50.927Z,99312.44
2023-03-05T17:19:52.435Z,99308.59
2023-03-05T17:21:53.776Z,99303.34
2023-03-05T17:23:55.225Z,99305.34
2023-03-05T17:25:57.066Z,99302.75
2023-03-05T17:27:58.493Z,99307.97
2023-03-05T17:30:00.123Z,99293.44
2023-03-05T17:32:01.767Z,99306.94
2023-03-05T17:34:03.340Z,99304.28
2023-03-05T17:36:05.617Z,99300.44
2023-03-05T17:38:07.954Z,99302.88
2023-03-05T17:40:15.250Z,99308.69
2023-03-05T17:42:20.356Z,99319.53
2023-03-05T17:44:21.871Z,99311.69
2023-03-05T17:46:23.350Z,99308.25
2023-03-05T17:48:25.248Z,99307.00
2023-03-05T17:50:26.717Z,99302.16
2023-03-05T17:52:28.114Z,99303.38
2023-03-05T17:54:29.701Z,99305.31
2023-03-05T17:56:32.795Z,99301.09
2023-03-05T17:58:34.318Z,99299.50
2023-03-05T18:00:36.417Z,99299.50
2023-03-05T18:02:38.070Z,99303.06
2023-03-05T18:04:41.200Z,99299.91
2023-03-05T18:06:43.499Z,99303.59
2023-03-05T18:08:45.055Z,99297.41
2023-03-05T18:10:46.556Z,99294.53
2023-03-05T18:12:49.156Z,99297.78
2023-03-05T18:14:51.003Z,99294.53
2023-03-05T18:16:52.541Z,99299.59
2023-03-05T18:18:54.129Z,99296.72
2023-03-05T18:20:55.530Z,99295.31
2023-03-05T18:22:58.776Z,99291.72
2023-03-05T18:25:00.236Z,99293.03
2023-03-05T18:27:01.685Z,99292.22
2023-03-05T18:29:03.501Z,99289.59
2023-03-05T18:31:05.424Z,99289.78
2023-03-05T18:33:08.002Z,99283.94
2023-03-05T18:35:10.377Z,99290.53
2023-03-05T18:37:11.768Z,99278.84
2023-03-05T18:39:15.254Z,99281.06
2023-03-05T18:41:22.226Z,99277.03
2023-03-05T18:43:24.638Z,99276.41
2023-03-05T18:45:26.180Z,99273.19
2023-03-05T18:47:28.727Z,99273.34
2023-03-05T18:49:30.536Z,99262.28
2023-03-05T18:51:34.134Z,99269.88
2023-03-05T18:53:35.568Z,99265.66
2023-03-05T18:55:37.089Z,99257.75
2023-03-05T18:57:38.740Z,99260.00
2023-03-05T18:59:40.249Z,99256.19
2023-03-05T19:01:41.837Z,99252.16
2023-03-05T19:03:44.274Z,99247.13
2023-03-05T19:05:45.665Z,99246.94
2023-03-05T19:07:47.752Z,99248.09
2023-03-05T19:09:57.713Z,99243.69
2023-03-05T19:12:00.775Z,99248.31
2023-03-05T19:14:02.182Z,99252.06
2023-03-05T19:16:09.388Z,99249.28
2023-03-05T19:18:10.838Z,99241.44
2023-03-05T19:20:13.449Z,99245.88
2023-03-05T19:22:14.863Z,99244.06
2023-03-05T19:24:17.138Z,99243.63
2023-03-05T19:26:18.626Z,99247.06
2023-03-05T19:28:21.199Z,99244.63
2023-03-05T19:30:22.750Z,99235.78
2023-03-05T19:32:24.312Z,99238.78
2023-03-05T19:34:27.576Z,99229.31
2023-03-05T19:36:30.314Z,99229.16
2023-03-05T19:38:31.683Z,99225.50
2023-03-05T19:40:33.132Z,99223.09
2023-03-05T19:42:36.170Z,99218.06
2023-03-05T19:44:37.659Z,99223.09
2023-03-05T19:46:41.830Z,99222.69
2023-03-05T19:48:44.175Z,99224.47
2023-03-05T19:50:45.665Z,99225.22
2023-03-05T19:52:47.094Z,99218.13
2023-03-05T19:54:48.471Z,99219.91
2023-03-05T19:56:52.354Z,99221.00
2023-03-05T19:58:55.256Z,99225.66
2023-03-05T20:00:58.307Z,99234.22
2023-03-05T20:02:59.706Z,99219.44
2023-03-05T20:05:01.379Z,99223.47
2023-03-05T20:07:03.753Z,99223.47
2023-03-05T20:09:07.615Z,99220.06
2023-03-05T20:11:10.880Z,99230.03
2023-03-05T20:13:12.489Z,99223.22
2023-03-05T20:15:14.681Z,99217.78
2023-03-05T20:17:16.221Z,99222.19
2023-03-05T20:19:18.357Z,99213.97
2023-03-05T20:21:23.165Z,99219.75
2023-03-05T20:23:24.770Z,99212.38
2023-03-05T20:25:26.301Z,99210.91
2023-03-05T20:27:27.723Z,99200.41
2023-03-05T20:29:29.156Z,99201.16
2023-03-05T20:31:31.140Z,99207.19
2023-03-05T20:33:32.752Z,99211.25
2023-03-05T20:35:34.234Z,99206.69
2023-03-05T20:37:40.178Z,99205.94
2023-03-05T20:39:42.137Z,99201.25
2023-03-05T20:41:44.162Z,99187.69
2023-03-05T20:43:48.795Z,99196.84
2023-03-05T20:45:50.644Z,99189.91
2023-03-05T20:47:52.252Z,99194.84
2023-03-05T20:49:56.515Z,99191.47
2023-03-05T20:51:58.069Z,99190.91
2023-03-05T20:54:04.019Z,99189.84
2023-03-05T20:56:05.922Z,99190.56
2023-03-05T20:58:07.914Z,99181.94
2023-03-05T21:00:10.345Z,99185.81
2023-03-05T21:02:11.770Z,99171.75
2023-03-05T21:04:13.226Z,99170.25
2023-03-05T21:06:14.582Z,99165.31
2023-03-05T21:08:16.035Z,99171.31
2023-03-05T21:10:17.704Z,99158.75
2023-03-05T21:12:19.151Z,99158.41
2023-03-05T21:14:20.671Z,99154.63
2023-03-05T21:16:27.382Z,99149.31
2023-03-05T21:18:29.552Z,99155.59
2023-03-05T21:20:31.101Z,99150.13
2023-03-05T21:22:33.491Z,99146.25
2023-03-05T21:24:50.504Z,99138.63
2023-03-05T21:26:52.094Z,99140.25
2023-03-05T21:28:53.649Z,99135.03
2023-03-05T21:30:55.446Z,99133.03
2023-03-05T21:33:01.766Z,99133.22
2023-03-05T21:35:03.539Z,99127.81
2023-03-05T21:37:05.077Z,99122.00
2023-03-05T21:39:06.642Z,99120.56
2023-03-05T21:41:08.096Z,99122.81
2023-03-05T21:43:11.869Z,99122.72
2023-03-05T21:45:16.551Z,99119.47
2023-03-05T21:47:17.926Z,99116.69
2023-03-05T21:49:19.314Z,99116.69
2023-03-05T21:51:28.253Z,99116.88
2023-03-05T21:53:29.737Z,99113.28
2023-03-05T21:55:35.068Z,99113.28
2023-03-05T21:57:36.541Z,99106.59
2023-03-05T21:59:42.243Z,99092.78
2023-03-05T22:01:43.681Z,99090.81
2023-03-05T22:03:45.905Z,99097.00
2023-03-05T22:05:47.349Z,99097.63
2023-03-05T22:07:48.744Z,99088.84
2023-03-05T22:09:55.431Z,99084.41
2023-03-05T22:11:57.193Z,99078.22
2023-03-05T22:13:58.589Z,99083.97
2023-03-05T22:15:59.976Z,99076.59
2023-03-05T22:18:01.439Z,99083.44
2023-03-05T22:20:03.578Z,99078.41
2023-03-05T22:22:05.037Z,99061.16
2023-03-05T22:24:06.579Z,99068.44
2023-03-05T22:26:08.051Z,99059.00
2023-03-05T22:28:11.776Z,99064.00
2023-03-05T22:30:15.836Z,99060.78
2023-03-05T22:32:17.461Z,99053.13
2023-03-05T22:34:18.834Z,99049.16
2023-03-05T22:36:20.396Z,99040.38
2023-03-05T22:38:22.190Z,99044.41
2023-03-05T22:40:23.704Z,99044.59
2023-03-05T22:42:25.247Z,99040.19
2023-03-05T22:44:26.753Z,99041.19
2023-03-05T22:46:28.186Z,99029.56
2023-03-05T22:48:29.568Z,99021.38
2023-03-05T22:50:31.013Z,99030.81
2023-03-05T22:52:32.478Z,99026.41
2023-03-05T22:54:33.889Z,99027.59
2023-03-05T22:56:36.446Z,99027.41
2023-03-05T22:58:38.225Z,99022.81
2023-03-05T23:00:40.270Z,99020.03
2023-03-05T23:02:42.714Z,99017.41
2023-03-05T23:04:49.269Z,99014.63
2023-03-05T23:06:50.919Z,99008.41
2023-03-05T23:08:52.323Z,99010.84
2023-03-05T23:10:53.744Z,99003.84
2023-03-05T23:12:56.990Z,99000.25
2023-03-05T23:15:03.950Z,99005.47
2023-03-05T23:17:05.527Z,99009.47
2023-03-05T23:19:06.927Z,99003.28
2023-03-05T23:21:08.344Z,98999.06
2023-03-05T23:23:09.775Z,98999.88
2023-03-05T23:25:13.854Z,98994.81
2023-03-05T23:27:17.216Z,99002.28
2023-03-05T23:29:18.747Z,98996.06
2023-03-05T23:31:20.211Z,98989.22
2023-03-05T23:33:23.777Z,98991.84
2023-03-05T23:35:31.081Z,98991.84
2023-03-05T23:37:32.530Z,98990.69
2023-03-05T23:39:33.926Z,98989.66
2023-03-05T23:41:35.282Z,98990.03
2023-03-05T23:43:36.698Z,98981.41
2023-03-05T23:45:38.521Z,98984.81
2023-03-05T23:47:40.446Z,98984.66
2023-03-05T23:49:41.884Z,98976.03
2023-03-05T23:51:43.244Z,98977.66
2023-03-05T23:53:44.661Z,98978.47
2023-03-05T23:55:46.232Z,98977.44
2023-03-05T23:57:48.033Z,98981.50
2023-03-05T23:59:49.457Z,98969.88
